Time;durP1;ratioP1;P1;durP2;ratioP2;P2;SDS_P1;SDS_P2;PMS_P1;PMS_P2;Temp;Humidity;BMP_temperature;BMP_pressure;BME280_temperature;BME280_humidity;BME280_pressure;Samples;Min_cycle;Max_cycle;Signal;HPM_P1;HPM_P2
2023/08/14 00:02:22;;;;;;;2.07;1.90;;;23.50;48.30;;;;;;5038166;28;20234;-77
2023/08/14 00:04:48;;;;;;;1.70;1.60;;;23.50;48.30;;;;;;5019710;28;20222;-76
2023/08/14 00:07:14;;;;;;;1.70;1.60;;;23.50;48.20;;;;;;5019419;28;20705;-77
2023/08/14 00:09:40;;;;;;;2.80;1.80;;;23.50;48.20;;;;;;5036569;28;20538;-77
2023/08/14 00:12:06;;;;;;;1.90;1.70;;;23.50;48.20;;;;;;5022203;28;20595;-76
2023/08/14 00:14:31;;;;;;;1.50;1.40;;;23.50;48.20;;;;;;5034340;28;20885;-76
2023/08/14 00:16:57;;;;;;;1.90;1.80;;;23.50;48.20;;;;;;5039266;28;20292;-77
2023/08/14 00:19:22;;;;;;;1.63;1.40;;;23.50;48.20;;;;;;5024733;28;20226;-76
2023/08/14 00:21:48;;;;;;;1.73;1.63;;;23.50;48.20;;;;;;5042214;28;20234;-77
2023/08/14 00:24:13;;;;;;;1.77;1.67;;;23.50;48.20;;;;;;5041751;28;20221;-77
2023/08/14 00:26:39;;;;;;;2.63;2.53;;;23.50;48.20;;;;;;5023778;28;20292;-77
2023/08/14 00:29:05;;;;;;;11.33;1.83;;;23.50;48.20;;;;;;5044385;28;20590;-76
2023/08/14 00:31:30;;;;;;;1.50;1.40;;;23.50;48.20;;;;;;5021281;28;20233;-76
2023/08/14 00:33:56;;;;;;;1.80;1.70;;;23.50;48.20;;;;;;5041597;28;20215;-76
2023/08/14 00:36:21;;;;;;;1.90;1.80;;;23.50;48.20;;;;;;5041647;28;20222;-76
2023/08/14 00:38:47;;;;;;;1.80;1.70;;;23.50;48.20;;;;;;5044320;28;20221;-75
2023/08/14 00:41:12;;;;;;;1.90;1.80;;;23.50;48.20;;;;;;5040720;28;20628;-77
2023/08/14 00:43:38;;;;;;;1.70;1.60;;;23.50;48.10;;;;;;5044650;28;20222;-76
2023/08/14 00:46:05;;;;;;;1.70;1.60;;;23.50;48.10;;;;;;5038753;28;20272;-76
2023/08/14 00:48:30;;;;;;;1.93;1.83;;;23.50;48.10;;;;;;5022079;28;20302;-77
2023/08/14 00:50:57;;;;;;;1.83;1.70;;;23.50;48.10;;;;;;5024179;28;20547;-76
2023/08/14 00:53:25;;;;;;;1.87;1.77;;;23.50;48.00;;;;;;5042218;28;20210;-80
2023/08/14 00:55:51;;;;;;;1.70;1.60;;;23.50;48.00;;;;;;5020994;28;20821;-79
2023/08/14 00:58:17;;;;;;;1.77;1.67;;;23.50;48.00;;;;;;5044163;28;20454;-79
2023/08/14 01:00:44;;;;;;;2.17;1.70;;;23.50;48.00;;;;;;5040656;28;20218;-78
2023/08/14 01:03:10;;;;;;;1.93;1.83;;;23.50;48.00;;;;;;5046404;28;20980;-79
2023/08/14 01:05:35;;;;;;;2.37;2.07;;;23.50;48.00;;;;;;5027796;28;20446;-79
2023/08/14 01:08:01;;;;;;;1.90;1.80;;;23.50;47.90;;;;;;5025119;28;20240;-79
2023/08/14 01:10:44;;;;;;;1.77;1.67;;;23.50;48.00;;;;;;5043693;28;20234;-79
2023/08/14 01:13:43;;;;;;;2.03;1.70;;;23.50;47.90;;;;;;5043404;28;20232;-79
2023/08/14 01:16:19;;;;;;;1.63;1.53;;;23.50;47.80;;;;;;5040928;28;21108;-79
2023/08/14 01:18:47;;;;;;;2.23;1.90;;;23.50;47.90;;;;;;5045997;28;21004;-79
2023/08/14 01:21:15;;;;;;;1.70;1.60;;;23.50;48.00;;;;;;5042719;28;20470;-79
2023/08/14 01:24:20;;;;;;;1.60;1.50;;;23.50;47.80;;;;;;5045680;28;20471;-78
2023/08/14 01:26:47;;;;;;;1.60;1.50;;;23.50;47.80;;;;;;5042299;28;20461;-78
2023/08/14 01:29:13;;;;;;;1.73;1.63;;;23.50;47.90;;;;;;5034196;28;20472;-77
2023/08/14 01:31:38;;;;;;;2.20;1.73;;;23.50;47.90;;;;;;5024796;28;20473;-79
2023/08/14 01:34:04;;;;;;;1.77;1.67;;;23.50;47.80;;;;;;5042268;28;20933;-78
2023/08/14 01:36:59;;;;;;;1.60;1.50;;;23.50;47.80;;;;;;5045714;28;20226;-78
2023/08/14 01:39:31;;;;;;;2.93;1.70;;;23.50;47.80;;;;;;5044172;28;20229;-78
2023/08/14 01:42:31;;;;;;;1.83;1.70;;;23.50;47.80;;;;;;5043579;28;21027;-78
2023/08/14 01:45:09;;;;;;;1.70;1.60;;;23.50;47.80;;;;;;5044320;28;20877;-77
2023/08/14 01:47:37;;;;;;;1.70;1.60;;;23.50;47.80;;;;;;5041323;28;20451;-78
2023/08/14 01:50:03;;;;;;;1.77;1.67;;;23.50;47.80;;;;;;5025276;28;20456;-78
2023/08/14 01:52:30;;;;;;;1.70;1.60;;;23.50;47.80;;;;;;5042095;28;20490;-78
2023/08/14 01:55:02;;;;;;;1.90;1.80;;;23.50;47.80;;;;;;5023930;28;21133;-77
2023/08/14 01:57:28;;;;;;;2.00;1.90;;;23.50;47.80;;;;;;5044068;28;20903;-77
2023/08/14 01:59:53;;;;;;;2.00;1.90;;;23.50;47.80;;;;;;5022878;28;20487;-77
2023/08/14 02:02:19;;;;;;;1.70;1.60;;;23.50;47.80;;;;;;5041479;28;21074;-78
2023/08/14 02:04:44;;;;;;;1.53;1.43;;;23.50;47.80;;;;;;5044013;28;20298;-77
2023/08/14 02:07:10;;;;;;;1.73;1.50;;;23.50;47.80;;;;;;5025428;28;20228;-77
2023/08/14 02:09:37;;;;;;;1.70;1.60;;;23.50;47.80;;;;;;5028058;28;20218;-78
2023/08/14 02:12:03;;;;;;;1.70;1.60;;;23.40;47.70;;;;;;5041322;28;20222;-78
2023/08/14 02:14:29;;;;;;;1.70;1.60;;;23.50;47.80;;;;;;5044871;28;20455;-77
2023/08/14 02:16:55;;;;;;;1.60;1.50;;;23.50;47.80;;;;;;5023613;28;20805;-77
2023/08/14 02:19:20;;;;;;;2.30;2.20;;;23.50;47.80;;;;;;5047266;28;20229;-77
2023/08/14 02:21:46;;;;;;;2.00;1.90;;;23.50;47.80;;;;;;5026422;28;20320;-77
2023/08/14 02:24:11;;;;;;;1.83;1.73;;;23.50;47.80;;;;;;5042170;28;20222;-77
2023/08/14 02:26:37;;;;;;;2.00;1.90;;;23.50;47.80;;;;;;5021898;28;20206;-77
2023/08/14 02:29:03;;;;;;;2.17;1.90;;;23.50;47.80;;;;;;5043606;28;20222;-77
2023/08/14 02:31:29;;;;;;;1.60;1.50;;;23.50;47.80;;;;;;5036371;28;20248;-77
2023/08/14 02:33:58;;;;;;;1.60;1.50;;;23.50;47.80;;;;;;5044904;28;20303;-76
2023/08/14 02:36:25;;;;;;;1.50;1.40;;;23.50;47.80;;;;;;5041634;28;20677;-76
2023/08/14 02:38:50;;;;;;;1.80;1.70;;;23.50;47.80;;;;;;5045189;28;21253;-76
2023/08/14 02:41:16;;;;;;;1.60;1.50;;;23.50;47.80;;;;;;5042324;28;20466;-76
2023/08/14 02:43:41;;;;;;;1.50;1.40;;;23.50;47.80;;;;;;5025792;28;20238;-76
2023/08/14 02:46:07;;;;;;;1.77;1.67;;;23.50;47.80;;;;;;5042242;28;20222;-76
2023/08/14 02:48:32;;;;;;;1.87;1.77;;;23.50;47.80;;;;;;5043578;28;20249;-76
2023/08/14 02:50:58;;;;;;;1.60;1.50;;;23.50;47.80;;;;;;5043164;28;20222;-76
2023/08/14 02:53:23;;;;;;;1.70;1.60;;;23.50;47.80;;;;;;5044092;28;20264;-76
2023/08/14 02:55:52;;;;;;;1.70;1.60;;;23.50;47.80;;;;;;5023263;28;20649;-76
2023/08/14 02:58:19;;;;;;;1.70;1.60;;;23.50;47.80;;;;;;5021361;28;20745;-76
2023/08/14 03:00:45;;;;;;;1.70;1.60;;;23.40;47.70;;;;;;5040726;28;20459;-76
2023/08/14 03:03:11;;;;;;;2.07;1.97;;;23.50;47.80;;;;;;5026587;28;20460;-73
2023/08/14 03:05:37;;;;;;;1.70;1.60;;;23.50;47.90;;;;;;5025599;28;20455;-76
2023/08/14 03:08:03;;;;;;;1.90;1.80;;;23.50;47.80;;;;;;5041996;28;20225;-76
2023/08/14 03:10:29;;;;;;;1.60;1.50;;;23.40;47.70;;;;;;5041338;28;20865;-76
2023/08/14 03:12:56;;;;;;;2.10;2.00;;;23.50;47.80;;;;;;5043568;28;20444;-77
2023/08/14 03:15:21;;;;;;;1.53;1.43;;;23.50;47.80;;;;;;5041290;28;20228;-78
2023/08/14 03:17:47;;;;;;;1.60;1.50;;;23.40;47.70;;;;;;5040988;28;20462;-77
2023/08/14 03:20:13;;;;;;;1.70;1.60;;;23.40;47.70;;;;;;5040094;28;20222;-77
2023/08/14 03:22:38;;;;;;;1.70;1.60;;;23.40;47.70;;;;;;5046752;28;20238;-75
2023/08/14 03:25:04;;;;;;;2.10;1.90;;;23.40;47.70;;;;;;5026342;28;20659;-76
2023/08/14 03:27:30;;;;;;;1.97;1.70;;;23.40;47.70;;;;;;5040121;28;20752;-76
2023/08/14 03:29:55;;;;;;;1.60;1.50;;;23.40;47.70;;;;;;5040912;28;20465;-76
2023/08/14 03:32:21;;;;;;;2.00;1.90;;;23.40;47.70;;;;;;5041100;28;20214;-77
2023/08/14 03:34:46;;;;;;;1.90;1.80;;;23.40;47.70;;;;;;5043154;28;20754;-77
2023/08/14 03:37:12;;;;;;;4.17;1.63;;;23.40;47.70;;;;;;5020980;28;20221;-76
2023/08/14 03:39:37;;;;;;;1.63;1.53;;;23.40;47.70;;;;;;5039689;28;20715;-77
2023/08/14 03:42:03;;;;;;;1.70;1.60;;;23.40;47.70;;;;;;5023940;28;20676;-76
2023/08/14 03:44:29;;;;;;;1.90;1.80;;;23.40;47.70;;;;;;5043650;28;20234;-76
2023/08/14 03:46:54;;;;;;;1.57;1.47;;;23.40;47.70;;;;;;5040561;28;20214;-76
2023/08/14 03:49:20;;;;;;;1.83;1.73;;;23.40;47.70;;;;;;5037390;28;20225;-76
2023/08/14 03:51:45;;;;;;;1.63;1.53;;;23.40;47.70;;;;;;5042047;28;20217;-76
2023/08/14 03:54:11;;;;;;;3.20;1.80;;;23.40;47.70;;;;;;5046840;28;20692;-76
2023/08/14 03:56:37;;;;;;;2.30;1.63;;;23.40;47.70;;;;;;5041933;28;20226;-76
2023/08/14 03:59:03;;;;;;;1.90;1.70;;;23.40;47.70;;;;;;5046249;28;20268;-76
2023/08/14 04:01:28;;;;;;;2.47;2.13;;;23.40;47.70;;;;;;5042625;28;20466;-76
2023/08/14 04:03:54;;;;;;;2.33;1.77;;;23.40;47.70;;;;;;5025537;28;20828;-76
2023/08/14 04:06:20;;;;;;;2.23;1.87;;;23.40;47.70;;;;;;5045262;28;20218;-76
2023/08/14 04:08:45;;;;;;;2.00;1.90;;;23.40;47.70;;;;;;5045871;28;20222;-76
2023/08/14 04:11:11;;;;;;;2.30;1.50;;;23.40;47.70;;;;;;5040741;28;20455;-75
2023/08/14 04:13:37;;;;;;;1.87;1.60;;;23.40;48.10;;;;;;5042403;28;20316;-75
2023/08/14 04:16:03;;;;;;;2.23;1.93;;;23.40;47.70;;;;;;5041870;28;21103;-75
2023/08/14 04:18:29;;;;;;;1.50;1.40;;;23.40;47.70;;;;;;5029245;28;20265;-75
2023/08/14 04:20:56;;;;;;;2.20;2.00;;;23.40;47.70;;;;;;5043964;28;20512;-75
2023/08/14 04:23:25;;;;;;;2.13;2.03;;;23.40;47.70;;;;;;5024483;28;21211;-75
2023/08/14 04:25:52;;;;;;;2.90;1.80;;;23.40;47.70;;;;;;5033427;28;20884;-75
2023/08/14 04:28:17;;;;;;;1.60;1.50;;;23.40;47.70;;;;;;5035283;28;20852;-75
2023/08/14 04:30:43;;;;;;;2.10;1.90;;;23.40;47.70;;;;;;5037129;28;20455;-74
2023/08/14 04:33:09;;;;;;;1.90;1.80;;;23.40;47.70;;;;;;5043457;28;20226;-75
2023/08/14 04:35:37;;;;;;;2.13;1.90;;;23.40;47.70;;;;;;5038066;28;20690;-71
2023/08/14 04:38:03;;;;;;;1.70;1.60;;;23.40;47.70;;;;;;5041103;28;20229;-73
2023/08/14 04:40:28;;;;;;;5.67;2.10;;;23.50;47.80;;;;;;5039252;28;20463;-76
2023/08/14 04:42:54;;;;;;;2.23;1.90;;;23.50;47.80;;;;;;5038956;28;21016;-74
2023/08/14 04:45:19;;;;;;;1.90;1.80;;;23.50;47.80;;;;;;5042744;28;20271;-74
2023/08/14 04:47:45;;;;;;;1.77;1.67;;;23.40;47.70;;;;;;5043420;28;20230;-74
2023/08/14 04:50:11;;;;;;;1.90;1.70;;;23.40;47.70;;;;;;5043665;28;20371;-75
2023/08/14 04:52:36;;;;;;;1.90;1.80;;;23.40;47.70;;;;;;5018618;28;20301;-79
2023/08/14 04:55:02;;;;;;;3.00;1.87;;;23.50;47.80;;;;;;5020523;28;20222;-77
2023/08/14 04:57:27;;;;;;;2.00;1.90;;;23.50;47.80;;;;;;5036884;28;20279;-77
2023/08/14 04:59:53;;;;;;;2.23;2.10;;;23.40;47.70;;;;;;5023454;28;20237;-75
2023/08/14 05:02:18;;;;;;;1.87;1.77;;;23.50;47.80;;;;;;5041687;28;20229;-76
2023/08/14 05:04:44;;;;;;;2.30;2.10;;;23.40;47.70;;;;;;5041901;28;20214;-74
2023/08/14 05:07:09;;;;;;;1.83;1.73;;;23.40;47.70;;;;;;5041518;28;20210;-74
2023/08/14 05:09:35;;;;;;;1.90;1.80;;;23.50;47.80;;;;;;5033148;28;20218;-77
2023/08/14 05:12:01;;;;;;;1.90;1.80;;;23.40;47.70;;;;;;5019159;28;20222;-73
2023/08/14 05:14:27;;;;;;;1.87;1.67;;;23.40;47.70;;;;;;5027849;28;20689;-76
2023/08/14 05:16:52;;;;;;;1.90;1.80;;;23.50;47.80;;;;;;5044234;28;20309;-76
2023/08/14 05:19:18;;;;;;;1.93;1.83;;;23.40;47.70;;;;;;5040175;28;20617;-78
2023/08/14 05:21:45;;;;;;;1.70;1.60;;;23.40;47.70;;;;;;5043042;28;20226;-76
2023/08/14 05:24:13;;;;;;;2.60;2.50;;;23.50;47.80;;;;;;5035977;28;20226;-77
2023/08/14 05:26:39;;;;;;;2.40;2.20;;;23.50;47.80;;;;;;5036653;28;20476;-77
2023/08/14 05:29:04;;;;;;;2.13;1.90;;;23.40;47.70;;;;;;5019695;28;20455;-76
2023/08/14 05:31:30;;;;;;;2.20;2.10;;;23.40;47.70;;;;;;5038175;28;20305;-80
2023/08/14 05:33:56;;;;;;;2.13;1.80;;;23.50;47.80;;;;;;5021913;28;20218;-83
2023/08/14 05:36:21;;;;;;;1.70;1.60;;;23.50;47.80;;;;;;5023347;28;20548;-83
2023/08/14 05:38:47;;;;;;;1.80;1.70;;;23.40;47.70;;;;;;5025970;28;20222;-83
2023/08/14 05:41:12;;;;;;;2.13;1.93;;;23.40;47.70;;;;;;5034209;28;20213;-83
2023/08/14 05:43:38;;;;;;;1.93;1.80;;;23.50;47.80;;;;;;5026034;28;20732;-85
2023/08/14 05:46:04;;;;;;;2.20;1.67;;;23.40;47.70;;;;;;5026191;28;20233;-85
2023/08/14 05:48:29;;;;;;;2.37;2.10;;;23.40;47.70;;;;;;5045587;28;20704;-84
2023/08/14 05:50:55;;;;;;;1.87;1.77;;;23.40;47.70;;;;;;5039621;28;20244;-85
2023/08/14 05:53:21;;;;;;;1.70;1.60;;;23.40;47.70;;;;;;5042449;28;20280;-85
2023/08/14 05:55:46;;;;;;;4.17;1.80;;;23.40;47.70;;;;;;5045698;28;20221;-85
2023/08/14 05:58:12;;;;;;;1.80;1.63;;;23.40;47.60;;;;;;5026957;28;20221;-84
2023/08/14 06:00:38;;;;;;;1.90;1.60;;;23.40;47.70;;;;;;5022325;28;20246;-85
2023/08/14 06:03:04;;;;;;;1.77;1.67;;;23.40;47.60;;;;;;5042077;28;20700;-84
2023/08/14 06:05:30;;;;;;;1.73;1.53;;;23.40;47.70;;;;;;5027130;28;20455;-85
2023/08/14 06:07:56;;;;;;;2.13;2.03;;;23.40;47.70;;;;;;5024390;28;20500;-85
2023/08/14 06:10:22;;;;;;;1.90;1.80;;;23.40;47.70;;;;;;5024382;28;20757;-85
2023/08/14 06:12:49;;;;;;;1.80;1.70;;;23.40;47.70;;;;;;5039739;28;20455;-85
2023/08/14 06:15:16;;;;;;;1.90;1.80;;;23.40;47.70;;;;;;5025836;28;20455;-84
2023/08/14 06:17:42;;;;;;;2.03;1.83;;;23.40;47.70;;;;;;5044804;28;21035;-83
2023/08/14 06:20:10;;;;;;;6.30;1.80;;;23.40;47.70;;;;;;5023280;28;20467;-85
2023/08/14 06:22:40;;;;;;;1.70;1.60;;;23.40;47.70;;;;;;5041382;28;20889;-86
2023/08/14 06:25:06;;;;;;;1.57;1.47;;;23.40;47.70;;;;;;5023482;28;20901;-85
2023/08/14 06:27:31;;;;;;;1.90;1.80;;;23.40;47.70;;;;;;5022585;28;21525;-85
2023/08/14 06:29:57;;;;;;;1.70;1.60;;;23.40;47.70;;;;;;5042042;28;20454;-81
2023/08/14 06:32:22;;;;;;;1.80;1.60;;;23.40;47.70;;;;;;5037549;28;20894;-84
2023/08/14 06:34:48;;;;;;;1.80;1.70;;;23.40;47.70;;;;;;5042836;28;20245;-84
2023/08/14 06:37:14;;;;;;;2.73;1.70;;;23.40;47.70;;;;;;5025130;28;22196;-85
2023/08/14 06:39:39;;;;;;;2.50;2.30;;;23.40;47.70;;;;;;5042751;28;20796;-85
2023/08/14 06:42:05;;;;;;;1.67;1.57;;;23.40;47.70;;;;;;5042418;28;20282;-77
2023/08/14 06:44:30;;;;;;;2.30;2.20;;;23.40;47.70;;;;;;5041734;28;20275;-77
2023/08/14 06:46:56;;;;;;;2.03;1.93;;;23.40;47.70;;;;;;5025027;28;20226;-77
2023/08/14 06:49:22;;;;;;;3.00;1.80;;;23.40;47.70;;;;;;5043597;28;20218;-77
2023/08/14 06:51:47;;;;;;;1.60;1.50;;;23.40;47.70;;;;;;5022913;28;20222;-78
2023/08/14 06:54:13;;;;;;;2.80;1.80;;;23.40;47.70;;;;;;5024918;28;20226;-79
2023/08/14 06:56:38;;;;;;;1.70;1.60;;;23.40;47.60;;;;;;5023027;28;20222;-78
2023/08/14 06:59:04;;;;;;;1.60;1.50;;;23.40;47.70;;;;;;5023951;28;20225;-78
2023/08/14 07:01:29;;;;;;;1.80;1.70;;;23.40;47.70;;;;;;5023751;28;20245;-77
2023/08/14 07:03:55;;;;;;;1.70;1.60;;;23.40;47.70;;;;;;5028310;28;20238;-78
2023/08/14 07:06:20;;;;;;;1.50;1.40;;;23.40;47.70;;;;;;5039374;28;20803;-77
2023/08/14 07:08:46;;;;;;;1.90;1.80;;;23.40;47.70;;;;;;5044677;28;20225;-77
2023/08/14 07:11:12;;;;;;;1.50;1.40;;;23.40;47.70;;;;;;5025061;28;20230;-78
2023/08/14 07:13:37;;;;;;;2.03;1.80;;;23.40;47.70;;;;;;5023657;28;20252;-84
2023/08/14 07:16:03;;;;;;;1.83;1.73;;;23.40;47.70;;;;;;5019943;28;20226;-84
2023/08/14 07:18:29;;;;;;;1.90;1.60;;;23.40;47.70;;;;;;5043486;28;20230;-84
2023/08/14 07:20:56;;;;;;;1.70;1.60;;;23.40;47.70;;;;;;5024409;28;20795;-85
2023/08/14 07:23:22;;;;;;;1.67;1.57;;;23.40;48.40;;;;;;5042100;28;20478;-85
2023/08/14 07:25:49;;;;;;;1.87;1.77;;;23.40;47.70;;;;;;5023129;28;20937;-85
2023/08/14 07:28:15;;;;;;;2.13;2.03;;;23.40;47.70;;;;;;5023926;28;20222;-85
2023/08/14 07:30:41;;;;;;;1.70;1.60;;;23.40;47.70;;;;;;5022309;28;20447;-85
2023/08/14 07:33:07;;;;;;;1.80;1.70;;;23.40;47.70;;;;;;5043974;28;20229;-86
2023/08/14 07:35:33;;;;;;;1.87;1.57;;;23.40;47.70;;;;;;5020869;28;20226;-86
2023/08/14 07:37:59;;;;;;;1.90;1.80;;;23.40;47.70;;;;;;5024764;28;21009;-86
2023/08/14 07:40:25;;;;;;;2.03;1.93;;;23.40;47.70;;;;;;5023053;28;22186;-86
2023/08/14 07:42:50;;;;;;;2.03;1.83;;;23.40;47.70;;;;;;5025309;28;20269;-86
2023/08/14 07:45:16;;;;;;;1.70;1.60;;;23.40;47.70;;;;;;5027684;28;20225;-86
2023/08/14 07:47:42;;;;;;;1.80;1.70;;;23.40;47.70;;;;;;5025770;28;20249;-86
2023/08/14 07:50:08;;;;;;;2.00;1.90;;;23.40;47.70;;;;;;5042625;28;20225;-85
2023/08/14 07:52:34;;;;;;;1.90;1.80;;;23.40;47.70;;;;;;5040845;28;20234;-86
2023/08/14 07:55:00;;;;;;;1.90;1.80;;;23.40;47.70;;;;;;5040681;28;20776;-86
2023/08/14 07:57:26;;;;;;;1.83;1.73;;;23.40;47.70;;;;;;5025932;28;20230;-87
2023/08/14 07:59:52;;;;;;;1.67;1.57;;;23.40;47.70;;;;;;5019422;28;20457;-86
2023/08/14 08:02:18;;;;;;;4.60;1.50;;;23.40;47.70;;;;;;5041032;28;20480;-88
2023/08/14 08:04:43;;;;;;;1.63;1.53;;;23.40;47.70;;;;;;5040383;28;20247;-86
2023/08/14 08:07:09;;;;;;;1.93;1.73;;;23.40;47.70;;;;;;5018962;28;20295;-88
2023/08/14 08:09:35;;;;;;;1.60;1.50;;;23.40;47.70;;;;;;5023507;28;20934;-87
2023/08/14 08:12:00;;;;;;;1.83;1.60;;;23.40;47.70;;;;;;5039557;28;20218;-87
2023/08/14 08:14:26;;;;;;;2.40;2.20;;;23.40;47.70;;;;;;5040736;28;20229;-88
2023/08/14 08:16:52;;;;;;;2.10;2.00;;;23.40;47.70;;;;;;5039372;28;20712;-89
2023/08/14 08:19:18;;;;;;;1.70;1.60;;;23.40;47.70;;;;;;5040535;28;20443;-88
2023/08/14 08:21:44;;;;;;;2.50;1.60;;;23.40;47.70;;;;;;5038426;28;20470;-81
2023/08/14 08:24:09;;;;;;;2.07;1.80;;;23.40;47.70;;;;;;5023657;28;20258;-88
2023/08/14 08:26:36;;;;;;;1.77;1.67;;;23.40;47.70;;;;;;5021131;28;20229;-89
2023/08/14 08:29:02;;;;;;;1.83;1.60;;;23.40;47.70;;;;;;5039097;28;20630;-89
2023/08/14 08:31:27;;;;;;;2.50;2.30;;;23.40;47.70;;;;;;5037972;28;20455;-90
2023/08/14 08:33:53;;;;;;;1.70;1.60;;;23.40;47.70;;;;;;5023063;28;20451;-90
2023/08/14 08:36:19;;;;;;;1.97;1.67;;;23.40;47.70;;;;;;5021251;28;20279;-86
2023/08/14 08:38:45;;;;;;;1.70;1.60;;;23.40;47.70;;;;;;5042883;28;20221;-87
2023/08/14 08:41:25;;;;;;;2.10;2.00;;;23.40;47.70;;;;;;5025128;28;20230;-90
2023/08/14 08:44:19;;;;;;;1.70;1.60;;;23.40;47.70;;;;;;5046031;28;20463;-90
2023/08/14 08:46:51;;;;;;;2.00;1.90;;;23.40;47.70;;;;;;5016619;28;20463;-88
2023/08/14 08:49:17;;;;;;;1.97;1.87;;;23.40;47.70;;;;;;5044284;28;20463;-89
2023/08/14 08:51:44;;;;;;;1.83;1.73;;;23.40;47.70;;;;;;5024617;28;20443;-87
2023/08/14 08:54:11;;;;;;;1.60;1.50;;;23.40;47.70;;;;;;5038867;28;20467;-91
2023/08/14 08:56:37;;;;;;;2.00;1.90;;;23.40;47.70;;;;;;5025170;28;20451;-89
2023/08/14 08:59:04;;;;;;;2.00;1.90;;;23.40;47.70;;;;;;5025646;28;20878;-90
2023/08/14 09:01:29;;;;;;;1.67;1.57;;;23.40;47.70;;;;;;5043831;28;20641;-90
2023/08/14 09:03:55;;;;;;;1.70;1.60;;;23.40;47.70;;;;;;5024180;28;20559;-86
2023/08/14 09:06:21;;;;;;;1.73;1.63;;;23.40;47.70;;;;;;5044196;28;20234;-85
2023/08/14 09:08:47;;;;;;;1.70;1.60;;;23.40;47.70;;;;;;5045191;28;20467;-89
2023/08/14 09:11:12;;;;;;;3.47;1.70;;;23.40;47.70;;;;;;5039962;28;20230;-88
2023/08/14 09:13:38;;;;;;;2.03;1.70;;;23.40;47.70;;;;;;5028020;28;20222;-87
2023/08/14 09:16:04;;;;;;;1.83;1.70;;;23.40;47.70;;;;;;5022884;28;20312;-89
2023/08/14 09:18:31;;;;;;;1.50;1.40;;;23.40;47.70;;;;;;5046819;28;20229;-89
2023/08/14 09:20:57;;;;;;;1.90;1.80;;;23.40;47.70;;;;;;5041921;28;20238;-88
2023/08/14 09:23:23;;;;;;;1.93;1.80;;;23.40;47.70;;;;;;5045264;28;20467;-88
2023/08/14 09:25:50;;;;;;;1.50;1.40;;;23.40;47.80;;;;;;5022308;28;20525;-90
2023/08/14 09:28:17;;;;;;;1.70;1.60;;;23.40;47.80;;;;;;5027019;28;21381;-88
2023/08/14 09:30:43;;;;;;;1.70;1.60;;;23.40;47.90;;;;;;5024479;28;20491;-88
2023/08/14 09:33:10;;;;;;;1.80;1.70;;;23.40;48.00;;;;;;5042813;28;20487;-82
2023/08/14 09:35:36;;;;;;;1.40;1.30;;;23.40;48.10;;;;;;5042017;28;20240;-82
2023/08/14 09:38:03;;;;;;;1.67;1.57;;;23.40;48.10;;;;;;5045177;28;20473;-81
2023/08/14 09:40:29;;;;;;;1.63;1.53;;;23.40;48.10;;;;;;5026283;28;20498;-81
2023/08/14 09:42:56;;;;;;;1.50;1.40;;;23.40;48.20;;;;;;5042612;28;20569;-81
2023/08/14 09:45:25;;;;;;;1.77;1.67;;;23.40;48.20;;;;;;5043507;28;21754;-81
2023/08/14 09:47:56;;;;;;;1.60;1.50;;;23.40;48.30;;;;;;5043683;28;20459;-82
2023/08/14 09:50:27;;;;;;;1.60;1.50;;;23.40;48.40;;;;;;5040807;28;20989;-81
2023/08/14 09:52:56;;;;;;;1.60;1.50;;;23.40;48.30;;;;;;5043751;28;20926;-81
2023/08/14 09:55:23;;;;;;;1.57;1.47;;;23.40;48.30;;;;;;5041758;28;20471;-81
2023/08/14 09:57:50;;;;;;;1.50;1.40;;;23.40;48.40;;;;;;5036411;28;20506;-82
2023/08/14 10:00:16;;;;;;;1.60;1.50;;;23.40;48.50;;;;;;5023224;28;20844;-81
2023/08/14 10:02:44;;;;;;;1.43;1.33;;;23.40;48.70;;;;;;5025724;28;20455;-81
2023/08/14 10:05:11;;;;;;;1.80;1.70;;;23.40;48.50;;;;;;5040586;28;20810;-82
2023/08/14 10:07:38;;;;;;;1.50;1.40;;;23.40;48.60;;;;;;5044059;28;20950;-81
2023/08/14 10:10:07;;;;;;;1.40;1.30;;;23.40;48.60;;;;;;5040814;28;20988;-82
2023/08/14 10:12:43;;;;;;;1.87;1.50;;;23.40;48.60;;;;;;5023261;28;20451;-87
2023/08/14 10:15:13;;;;;;;2.13;1.80;;;23.40;48.60;;;;;;5040267;28;20969;-88
2023/08/14 10:17:50;;;;;;;1.80;1.70;;;23.40;48.60;;;;;;5046454;28;20907;-89
2023/08/14 10:20:19;;;;;;;1.57;1.47;;;23.40;48.60;;;;;;5022251;28;20478;-87
2023/08/14 10:22:46;;;;;;;1.90;1.80;;;23.40;48.80;;;;;;5003492;28;20473;-87
2023/08/14 10:25:13;;;;;;;1.60;1.50;;;23.40;48.70;;;;;;5001073;28;20876;-87
2023/08/14 10:27:39;;;;;;;1.63;1.53;;;23.40;48.70;;;;;;5019435;28;20461;-87
2023/08/14 10:30:06;;;;;;;1.80;1.70;;;23.40;48.70;;;;;;5000720;28;20448;-82
2023/08/14 10:32:33;;;;;;;1.70;1.60;;;23.40;48.70;;;;;;5020497;28;20675;-84
2023/08/14 10:34:59;;;;;;;1.70;1.60;;;23.40;48.70;;;;;;5003168;28;20484;-84
2023/08/14 10:37:38;;;;;;;1.70;1.50;;;23.50;48.80;;;;;;5003848;28;21159;-84
2023/08/14 10:40:24;;;;;;;1.57;1.47;;;23.50;48.80;;;;;;5000990;28;20282;-84
2023/08/14 10:42:57;;;;;;;1.40;1.30;;;23.40;48.70;;;;;;5001250;28;20577;-85
2023/08/14 10:45:25;;;;;;;1.70;1.60;;;23.50;48.90;;;;;;5002616;28;20461;-85
2023/08/14 10:47:59;;;;;;;1.40;1.30;;;23.40;48.80;;;;;;5005886;28;20980;-86
2023/08/14 10:50:27;;;;;;;1.33;1.23;;;23.40;48.80;;;;;;4999207;28;20556;-86
2023/08/14 10:52:54;;;;;;;1.70;1.60;;;23.50;48.90;;;;;;5001923;28;20491;-86
2023/08/14 10:55:39;;;;;;;1.60;1.50;;;23.50;48.90;;;;;;4998191;28;20465;-86
2023/08/14 10:58:31;;;;;;;1.57;1.47;;;23.50;48.80;;;;;;5002900;28;20495;-86
2023/08/14 11:00:57;;;;;;;1.60;1.50;;;23.50;48.90;;;;;;5014110;28;20472;-86
2023/08/14 11:03:22;;;;;;;1.50;1.40;;;23.50;48.90;;;;;;4998158;28;20465;-86
2023/08/14 11:05:48;;;;;;;1.40;1.30;;;23.50;48.90;;;;;;5001031;28;20472;-86
2023/08/14 11:08:14;;;;;;;1.60;1.50;;;23.50;48.90;;;;;;5003387;28;20278;-86
2023/08/14 11:10:41;;;;;;;1.60;1.50;;;23.50;48.90;;;;;;5017518;28;20293;-86
2023/08/14 11:13:10;;;;;;;1.50;1.40;;;23.50;48.90;;;;;;5001746;28;20437;-86
2023/08/14 11:15:38;;;;;;;1.60;1.50;;;23.50;48.90;;;;;;5002341;28;20465;-86
2023/08/14 11:18:10;;;;;;;1.63;1.53;;;23.50;48.90;;;;;;4992606;28;20531;-86
2023/08/14 11:20:45;;;;;;;1.97;1.87;;;23.50;48.90;;;;;;5008751;28;20465;-86
2023/08/14 11:23:10;;;;;;;1.40;1.30;;;23.50;48.90;;;;;;5026390;28;20497;-80
2023/08/14 11:25:37;;;;;;;1.50;1.40;;;23.50;48.90;;;;;;5022984;28;20479;-82
2023/08/14 11:28:03;;;;;;;1.57;1.47;;;23.50;49.00;;;;;;5039302;28;20283;-82
2023/08/14 11:30:33;;;;;;;1.50;1.40;;;23.50;48.90;;;;;;5041066;28;20459;-80
2023/08/14 11:33:01;;;;;;;1.60;1.50;;;23.50;48.90;;;;;;5025248;28;20233;-87
2023/08/14 11:35:28;;;;;;;1.60;1.50;;;23.50;48.90;;;;;;5025249;28;20498;-87
2023/08/14 11:37:54;;;;;;;1.43;1.33;;;23.50;48.90;;;;;;5023466;28;20463;-88
2023/08/14 11:40:20;;;;;;;1.47;1.37;;;23.50;49.00;;;;;;5041750;28;20455;-86
2023/08/14 11:42:46;;;;;;;1.50;1.40;;;23.50;49.00;;;;;;5026253;28;20532;-80
2023/08/14 11:45:11;;;;;;;1.77;1.67;;;23.50;49.00;;;;;;5035725;28;22226;-80
2023/08/14 11:47:47;;;;;;;1.63;1.53;;;23.50;49.00;;;;;;5036323;28;20775;-80
2023/08/14 11:50:13;;;;;;;1.60;1.50;;;23.50;49.00;;;;;;5017596;28;20226;-81
2023/08/14 11:52:39;;;;;;;3.03;2.43;;;23.50;48.80;;;;;;5040391;28;20464;-82
2023/08/14 11:55:06;;;;;;;3.47;1.60;;;23.50;48.40;;;;;;5021451;28;20445;-82
2023/08/14 11:57:32;;;;;;;1.60;1.50;;;23.50;47.90;;;;;;5040153;28;20227;-82
2023/08/14 12:00:00;;;;;;;1.80;1.70;;;23.60;47.80;;;;;;5023832;28;20459;-82
2023/08/14 12:02:27;;;;;;;1.63;1.53;;;23.60;47.80;;;;;;5038837;28;20597;-83
2023/08/14 12:04:57;;;;;;;1.53;1.43;;;23.60;47.80;;;;;;5017421;28;20459;-82
2023/08/14 12:07:24;;;;;;;1.63;1.53;;;23.60;47.80;;;;;;5023285;28;20464;-82
2023/08/14 12:09:54;;;;;;;1.70;1.50;;;23.60;47.80;;;;;;5038685;28;20458;-83
2023/08/14 12:12:20;;;;;;;1.60;1.50;;;23.60;47.80;;;;;;5025167;28;20447;-82
2023/08/14 12:14:47;;;;;;;1.50;1.40;;;23.60;47.80;;;;;;5028162;28;20459;-83
2023/08/14 12:17:15;;;;;;;1.57;1.47;;;23.60;47.80;;;;;;5042802;28;20458;-83
2023/08/14 12:19:54;;;;;;;1.40;1.30;;;23.60;47.80;;;;;;5041566;28;20489;-83
2023/08/14 12:22:31;;;;;;;1.43;1.30;;;23.60;47.80;;;;;;5040879;28;20777;-83
2023/08/14 12:24:57;;;;;;;2.17;1.73;;;23.60;47.80;;;;;;5043952;28;20474;-83
2023/08/14 12:27:27;;;;;;;1.57;1.47;;;23.60;47.80;;;;;;5047027;28;20477;-83
2023/08/14 12:29:55;;;;;;;1.50;1.40;;;23.60;47.80;;;;;;5027646;28;20701;-83
2023/08/14 12:32:22;;;;;;;1.80;1.70;;;23.60;47.80;;;;;;5041722;28;20451;-85
2023/08/14 12:34:48;;;;;;;1.63;1.53;;;23.60;47.80;;;;;;5043800;28;20447;-84
2023/08/14 12:37:15;;;;;;;1.77;1.67;;;23.60;47.80;;;;;;5026496;28;20483;-85
2023/08/14 12:39:42;;;;;;;1.50;1.40;;;23.60;47.80;;;;;;5024460;28;20807;-84
2023/08/14 12:42:08;;;;;;;1.53;1.43;;;23.60;47.80;;;;;;5020449;28;20463;-84
2023/08/14 12:44:34;;;;;;;1.40;1.30;;;23.60;47.80;;;;;;5044673;28;20823;-85
2023/08/14 12:46:59;;;;;;;1.70;1.43;;;23.60;47.80;;;;;;5026984;28;20625;-84
2023/08/14 12:49:25;;;;;;;1.40;1.30;;;23.60;47.90;;;;;;5027005;28;20214;-84